Belk, Alabama
Current Conditions -  °F | °C
As of 1:58 PM on Thursday 23 Oct 2014 (Local Time) from KCBM Reporting Station
Few Clouds Few Clouds  
Wind Chill: 65°   Ceiling: Unl
Heat Index: 65°   Visibility: 10mi
Dew Point: 45°   Wind: 3mph
Humidity: 48%   Direction: 30°NNE
Pressure: 30.11"   Gusts: NA
Location:  33.65°N, 87.93°W
Report Text: KCBM 231858Z AUTO 03003KT 10SM FEW200 18/07 A3011 RMK AO2 SLP199 T01830071 $
Loading
Personal Weather Stations






























Interactive Weather Map
Tropical Storm Tracking
New forecast layout! Learn more

10-Day Weather Forecast

Advertisements
Track Severe Weather on mobile